sensor_id;sensor_type;location;lat;lon;timestamp;P1;durP1;ratioP1;P2;durP2;ratioP2
62153;SDS011;48140;45.486;9.226;2022-08-01T00:00:20;6.07;;;2.42;;
62153;SDS011;48140;45.486;9.226;2022-08-01T00:02:45;9.80;;;4.57;;
62153;SDS011;48140;45.486;9.226;2022-08-01T00:05:11;6.80;;;4.40;;
62153;SDS011;48140;45.486;9.226;2022-08-01T00:07:37;5.57;;;3.47;;
62153;SDS011;48140;45.486;9.226;2022-08-01T00:10:04;9.93;;;5.85;;
62153;SDS011;48140;45.486;9.226;2022-08-01T00:12:32;7.13;;;4.25;;
62153;SDS011;48140;45.486;9.226;2022-08-01T00:14:58;7.90;;;4.75;;
62153;SDS011;48140;45.486;9.226;2022-08-01T00:17:24;7.03;;;3.85;;
62153;SDS011;48140;45.486;9.226;2022-08-01T00:19:49;4.88;;;3.47;;
62153;SDS011;48140;45.486;9.226;2022-08-01T00:22:15;3.45;;;1.90;;
62153;SDS011;48140;45.486;9.226;2022-08-01T00:24:40;7.57;;;5.13;;
62153;SDS011;48140;45.486;9.226;2022-08-01T00:27:06;5.40;;;3.03;;
62153;SDS011;48140;45.486;9.226;2022-08-01T00:29:32;8.68;;;5.82;;
62153;SDS011;48140;45.486;9.226;2022-08-01T00:31:58;5.00;;;3.47;;
62153;SDS011;48140;45.486;9.226;2022-08-01T00:34:23;4.43;;;2.70;;
62153;SDS011;48140;45.486;9.226;2022-08-01T00:36:49;5.80;;;3.97;;
62153;SDS011;48140;45.486;9.226;2022-08-01T00:39:14;5.68;;;3.63;;
62153;SDS011;48140;45.486;9.226;2022-08-01T00:41:40;3.95;;;2.40;;
62153;SDS011;48140;45.486;9.226;2022-08-01T00:44:06;8.70;;;5.03;;
62153;SDS011;48140;45.486;9.226;2022-08-01T00:46:32;9.38;;;4.90;;
62153;SDS011;48140;45.486;9.226;2022-08-01T00:48:58;9.38;;;4.18;;
62153;SDS011;48140;45.486;9.226;2022-08-01T00:51:24;7.28;;;3.70;;
62153;SDS011;48140;45.486;9.226;2022-08-01T00:53:51;3.83;;;2.20;;
62153;SDS011;48140;45.486;9.226;2022-08-01T00:56:18;6.63;;;3.40;;
62153;SDS011;48140;45.486;9.226;2022-08-01T00:58:45;6.50;;;3.72;;
62153;SDS011;48140;45.486;9.226;2022-08-01T01:01:11;4.75;;;3.00;;
62153;SDS011;48140;45.486;9.226;2022-08-01T01:03:37;5.25;;;3.08;;
62153;SDS011;48140;45.486;9.226;2022-08-01T01:06:14;6.53;;;3.10;;
62153;SDS011;48140;45.486;9.226;2022-08-01T01:14:45;5.07;;;3.00;;
62153;SDS011;48140;45.486;9.226;2022-08-01T01:17:16;3.45;;;2.40;;
62153;SDS011;48140;45.486;9.226;2022-08-01T01:19:48;3.70;;;2.25;;
62153;SDS011;48140;45.486;9.226;2022-08-01T01:22:36;3.60;;;2.38;;
62153;SDS011;48140;45.486;9.226;2022-08-01T01:28:13;4.70;;;2.53;;
62153;SDS011;48140;45.486;9.226;2022-08-01T01:31:04;5.63;;;2.40;;
62153;SDS011;48140;45.486;9.226;2022-08-01T01:33:36;7.20;;;2.33;;
62153;SDS011;48140;45.486;9.226;2022-08-01T01:36:11;3.60;;;2.25;;
62153;SDS011;48140;45.486;9.226;2022-08-01T01:39:03;6.40;;;2.72;;
62153;SDS011;48140;45.486;9.226;2022-08-01T01:41:32;13.32;;;6.22;;
62153;SDS011;48140;45.486;9.226;2022-08-01T01:44:05;5.68;;;3.45;;
62153;SDS011;48140;45.486;9.226;2022-08-01T01:46:35;4.70;;;2.70;;
62153;SDS011;48140;45.486;9.226;2022-08-01T01:49:02;9.75;;;5.47;;
62153;SDS011;48140;45.486;9.226;2022-08-01T01:51:29;4.68;;;2.47;;
62153;SDS011;48140;45.486;9.226;2022-08-01T01:53:57;6.55;;;4.28;;
62153;SDS011;48140;45.486;9.226;2022-08-01T01:56:25;23.90;;;14.98;;
62153;SDS011;48140;45.486;9.226;2022-08-01T01:58:56;15.45;;;8.63;;
62153;SDS011;48140;45.486;9.226;2022-08-01T02:01:43;7.43;;;2.40;;
62153;SDS011;48140;45.486;9.226;2022-08-01T02:04:26;7.82;;;4.22;;
62153;SDS011;48140;45.486;9.226;2022-08-01T02:07:03;8.77;;;5.65;;
62153;SDS011;48140;45.486;9.226;2022-08-01T02:09:40;4.30;;;2.65;;
62153;SDS011;48140;45.486;9.226;2022-08-01T02:12:21;5.43;;;2.92;;
62153;SDS011;48140;45.486;9.226;2022-08-01T02:14:47;7.78;;;4.28;;
62153;SDS011;48140;45.486;9.226;2022-08-01T02:17:16;6.80;;;3.53;;
62153;SDS011;48140;45.486;9.226;2022-08-01T02:19:48;7.45;;;3.10;;
62153;SDS011;48140;45.486;9.226;2022-08-01T02:22:31;3.83;;;2.33;;
62153;SDS011;48140;45.486;9.226;2022-08-01T02:25:07;5.05;;;2.22;;
62153;SDS011;48140;45.486;9.226;2022-08-01T02:30:35;3.72;;;2.30;;
62153;SDS011;48140;45.486;9.226;2022-08-01T02:33:23;3.17;;;2.00;;
62153;SDS011;48140;45.486;9.226;2022-08-01T02:35:57;5.07;;;2.40;;
62153;SDS011;48140;45.486;9.226;2022-08-01T02:38:28;5.63;;;2.30;;
62153;SDS011;48140;45.486;9.226;2022-08-01T02:40:58;3.38;;;2.35;;
62153;SDS011;48140;45.486;9.226;2022-08-01T02:43:31;4.20;;;2.42;;
62153;SDS011;48140;45.486;9.226;2022-08-01T02:45:59;3.95;;;2.38;;
62153;SDS011;48140;45.486;9.226;2022-08-01T02:48:33;6.10;;;2.40;;
62153;SDS011;48140;45.486;9.226;2022-08-01T02:51:02;2.88;;;1.90;;
62153;SDS011;48140;45.486;9.226;2022-08-01T02:53:31;6.20;;;2.83;;
62153;SDS011;48140;45.486;9.226;2022-08-01T02:56:03;4.95;;;2.10;;
62153;SDS011;48140;45.486;9.226;2022-08-01T02:58:35;6.13;;;1.90;;
62153;SDS011;48140;45.486;9.226;2022-08-01T03:01:04;3.55;;;2.10;;
62153;SDS011;48140;45.486;9.226;2022-08-01T03:03:31;3.55;;;1.77;;
62153;SDS011;48140;45.486;9.226;2022-08-01T03:05:58;5.38;;;3.00;;
62153;SDS011;48140;45.486;9.226;2022-08-01T03:08:29;7.13;;;4.15;;
62153;SDS011;48140;45.486;9.226;2022-08-01T03:10:55;3.38;;;2.08;;
62153;SDS011;48140;45.486;9.226;2022-08-01T03:13:28;4.45;;;1.92;;
62153;SDS011;48140;45.486;9.226;2022-08-01T03:16:11;3.90;;;1.80;;
62153;SDS011;48140;45.486;9.226;2022-08-01T03:22:19;4.20;;;2.20;;
62153;SDS011;48140;45.486;9.226;2022-08-01T03:24:52;4.07;;;1.90;;
62153;SDS011;48140;45.486;9.226;2022-08-01T03:31:32;3.92;;;2.10;;
62153;SDS011;48140;45.486;9.226;2022-08-01T03:34:23;2.85;;;1.95;;
62153;SDS011;48140;45.486;9.226;2022-08-01T03:37:26;4.53;;;2.30;;
62153;SDS011;48140;45.486;9.226;2022-08-01T03:46:26;7.40;;;2.00;;
62153;SDS011;48140;45.486;9.226;2022-08-01T03:48:58;2.97;;;1.90;;
62153;SDS011;48140;45.486;9.226;2022-08-01T03:51:44;2.60;;;1.88;;
62153;SDS011;48140;45.486;9.226;2022-08-01T03:57:59;2.60;;;2.03;;
62153;SDS011;48140;45.486;9.226;2022-08-01T04:00:58;3.55;;;1.88;;
62153;SDS011;48140;45.486;9.226;2022-08-01T04:03:57;4.85;;;1.90;;
62153;SDS011;48140;45.486;9.226;2022-08-01T04:06:24;4.28;;;2.10;;
62153;SDS011;48140;45.486;9.226;2022-08-01T04:09:34;3.05;;;2.00;;
62153;SDS011;48140;45.486;9.226;2022-08-01T04:12:15;3.50;;;1.95;;
62153;SDS011;48140;45.486;9.226;2022-08-01T04:14:52;4.45;;;2.03;;
62153;SDS011;48140;45.486;9.226;2022-08-01T04:17:56;4.78;;;2.08;;
62153;SDS011;48140;45.486;9.226;2022-08-01T04:21:13;3.80;;;2.10;;
62153;SDS011;48140;45.486;9.226;2022-08-01T04:27:19;2.70;;;1.90;;
62153;SDS011;48140;45.486;9.226;2022-08-01T04:30:33;3.58;;;1.92;;
62153;SDS011;48140;45.486;9.226;2022-08-01T04:36:37;2.92;;;1.90;;
62153;SDS011;48140;45.486;9.226;2022-08-01T04:39:46;6.80;;;2.50;;
62153;SDS011;48140;45.486;9.226;2022-08-01T04:42:13;4.53;;;2.35;;
62153;SDS011;48140;45.486;9.226;2022-08-01T04:44:43;4.15;;;2.22;;
62153;SDS011;48140;45.486;9.226;2022-08-01T04:47:21;5.47;;;2.20;;
62153;SDS011;48140;45.486;9.226;2022-08-01T04:50:07;3.15;;;1.95;;
62153;SDS011;48140;45.486;9.226;2022-08-01T04:53:03;4.70;;;2.10;;
62153;SDS011;48140;45.486;9.226;2022-08-01T05:03:03;4.03;;;2.10;;
62153;SDS011;48140;45.486;9.226;2022-08-01T05:15:54;4.63;;;2.28;;
62153;SDS011;48140;45.486;9.226;2022-08-01T05:18:29;5.20;;;2.10;;
62153;SDS011;48140;45.486;9.226;2022-08-01T05:21:14;2.80;;;1.80;;
62153;SDS011;48140;45.486;9.226;2022-08-01T05:24:15;3.20;;;2.00;;
62153;SDS011;48140;45.486;9.226;2022-08-01T05:27:05;4.90;;;2.30;;
62153;SDS011;48140;45.486;9.226;2022-08-01T05:30:07;3.17;;;1.85;;
62153;SDS011;48140;45.486;9.226;2022-08-01T05:32:42;4.03;;;2.10;;
62153;SDS011;48140;45.486;9.226;2022-08-01T05:36:00;2.72;;;1.80;;
62153;SDS011;48140;45.486;9.226;2022-08-01T05:39:17;2.75;;;1.90;;
62153;SDS011;48140;45.486;9.226;2022-08-01T05:42:03;4.78;;;2.10;;
62153;SDS011;48140;45.486;9.226;2022-08-01T06:20:18;4.03;;;2.00;;
62153;SDS011;48140;45.486;9.226;2022-08-01T06:23:48;3.65;;;2.10;;
62153;SDS011;48140;45.486;9.226;2022-08-01T06:26:17;3.97;;;2.00;;
62153;SDS011;48140;45.486;9.226;2022-08-01T06:28:43;3.00;;;2.10;;
62153;SDS011;48140;45.486;9.226;2022-08-01T06:31:09;6.80;;;2.20;;
62153;SDS011;48140;45.486;9.226;2022-08-01T06:33:37;4.38;;;2.20;;
62153;SDS011;48140;45.486;9.226;2022-08-01T06:36:04;3.50;;;2.15;;
62153;SDS011;48140;45.486;9.226;2022-08-01T06:38:34;4.55;;;2.13;;
62153;SDS011;48140;45.486;9.226;2022-08-01T06:41:03;6.15;;;2.10;;
62153;SDS011;48140;45.486;9.226;2022-08-01T06:43:32;6.28;;;2.10;;
62153;SDS011;48140;45.486;9.226;2022-08-01T06:45:58;5.45;;;2.10;;
62153;SDS011;48140;45.486;9.226;2022-08-01T06:48:24;3.65;;;2.05;;
62153;SDS011;48140;45.486;9.226;2022-08-01T06:50:59;3.95;;;2.08;;
62153;SDS011;48140;45.486;9.226;2022-08-01T06:53:41;4.40;;;2.00;;
62153;SDS011;48140;45.486;9.226;2022-08-01T06:56:10;4.68;;;2.10;;
62153;SDS011;48140;45.486;9.226;2022-08-01T06:58:39;4.80;;;2.03;;
62153;SDS011;48140;45.486;9.226;2022-08-01T07:08:46;3.92;;;1.90;;
62153;SDS011;48140;45.486;9.226;2022-08-01T07:11:59;5.68;;;2.20;;
62153;SDS011;48140;45.486;9.226;2022-08-01T07:14:28;2.97;;;1.98;;
62153;SDS011;48140;45.486;9.226;2022-08-01T07:16:56;3.15;;;1.83;;
62153;SDS011;48140;45.486;9.226;2022-08-01T07:20:01;3.92;;;1.83;;
62153;SDS011;48140;45.486;9.226;2022-08-01T07:22:29;4.63;;;1.90;;
62153;SDS011;48140;45.486;9.226;2022-08-01T07:24:56;3.25;;;1.83;;
62153;SDS011;48140;45.486;9.226;2022-08-01T07:27:21;3.63;;;1.90;;
62153;SDS011;48140;45.486;9.226;2022-08-01T07:29:50;3.05;;;2.15;;
62153;SDS011;48140;45.486;9.226;2022-08-01T07:32:17;2.67;;;1.63;;
62153;SDS011;48140;45.486;9.226;2022-08-01T07:34:45;3.03;;;1.80;;
62153;SDS011;48140;45.486;9.226;2022-08-01T07:37:15;6.13;;;2.00;;
62153;SDS011;48140;45.486;9.226;2022-08-01T07:39:55;5.78;;;2.20;;
62153;SDS011;48140;45.486;9.226;2022-08-01T07:42:21;8.82;;;2.13;;
62153;SDS011;48140;45.486;9.226;2022-08-01T07:44:48;6.32;;;1.92;;
62153;SDS011;48140;45.486;9.226;2022-08-01T07:47:14;7.18;;;2.00;;
62153;SDS011;48140;45.486;9.226;2022-08-01T07:49:40;3.28;;;2.00;;
62153;SDS011;48140;45.486;9.226;2022-08-01T07:52:07;3.95;;;2.10;;
62153;SDS011;48140;45.486;9.226;2022-08-01T07:55:26;3.70;;;2.00;;
62153;SDS011;48140;45.486;9.226;2022-08-01T07:58:18;4.35;;;1.75;;
62153;SDS011;48140;45.486;9.226;2022-08-01T08:04:42;2.20;;;1.80;;
62153;SDS011;48140;45.486;9.226;2022-08-01T08:14:36;13.10;;;2.27;;
62153;SDS011;48140;45.486;9.226;2022-08-01T08:20:21;4.88;;;2.17;;
62153;SDS011;48140;45.486;9.226;2022-08-01T08:22:52;2.38;;;1.73;;
62153;SDS011;48140;45.486;9.226;2022-08-01T08:25:21;7.28;;;2.00;;
62153;SDS011;48140;45.486;9.226;2022-08-01T08:28:39;4.85;;;1.98;;
62153;SDS011;48140;45.486;9.226;2022-08-01T08:32:05;6.03;;;2.22;;
62153;SDS011;48140;45.486;9.226;2022-08-01T08:34:52;3.72;;;1.90;;
62153;SDS011;48140;45.486;9.226;2022-08-01T08:46:50;3.97;;;2.20;;
62153;SDS011;48140;45.486;9.226;2022-08-01T08:52:56;4.53;;;2.50;;
62153;SDS011;48140;45.486;9.226;2022-08-01T08:55:29;4.20;;;2.22;;
62153;SDS011;48140;45.486;9.226;2022-08-01T09:02:05;3.65;;;2.10;;
62153;SDS011;48140;45.486;9.226;2022-08-01T09:04:43;2.70;;;2.00;;
62153;SDS011;48140;45.486;9.226;2022-08-01T09:07:30;10.27;;;2.38;;
62153;SDS011;48140;45.486;9.226;2022-08-01T09:09:59;6.93;;;3.33;;
62153;SDS011;48140;45.486;9.226;2022-08-01T09:12:25;4.95;;;3.05;;
62153;SDS011;48140;45.486;9.226;2022-08-01T09:15:24;4.05;;;2.70;;
62153;SDS011;48140;45.486;9.226;2022-08-01T09:18:35;8.32;;;3.00;;
62153;SDS011;48140;45.486;9.226;2022-08-01T09:21:14;5.47;;;2.78;;
62153;SDS011;48140;45.486;9.226;2022-08-01T09:24:01;3.83;;;2.20;;
62153;SDS011;48140;45.486;9.226;2022-08-01T09:26:52;5.68;;;2.42;;
62153;SDS011;48140;45.486;9.226;2022-08-01T09:30:10;5.97;;;2.70;;
62153;SDS011;48140;45.486;9.226;2022-08-01T09:33:37;3.95;;;2.40;;
62153;SDS011;48140;45.486;9.226;2022-08-01T09:36:24;5.05;;;2.20;;
62153;SDS011;48140;45.486;9.226;2022-08-01T09:42:54;3.45;;;2.13;;
62153;SDS011;48140;45.486;9.226;2022-08-01T09:46:11;4.05;;;2.20;;
62153;SDS011;48140;45.486;9.226;2022-08-01T09:49:05;7.47;;;2.40;;
62153;SDS011;48140;45.486;9.226;2022-08-01T09:51:48;4.28;;;2.60;;
62153;SDS011;48140;45.486;9.226;2022-08-01T09:54:34;4.43;;;2.58;;
62153;SDS011;48140;45.486;9.226;2022-08-01T09:57:11;3.97;;;2.20;;
62153;SDS011;48140;45.486;9.226;2022-08-01T09:59:49;5.60;;;2.70;;
62153;SDS011;48140;45.486;9.226;2022-08-01T10:05:09;4.05;;;2.22;;
62153;SDS011;48140;45.486;9.226;2022-08-01T10:08:15;4.93;;;2.42;;
62153;SDS011;48140;45.486;9.226;2022-08-01T10:10:42;6.03;;;2.35;;
62153;SDS011;48140;45.486;9.226;2022-08-01T10:13:41;4.30;;;2.17;;
62153;SDS011;48140;45.486;9.226;2022-08-01T10:16:37;3.60;;;2.20;;
62153;SDS011;48140;45.486;9.226;2022-08-01T10:19:21;4.00;;;2.00;;
62153;SDS011;48140;45.486;9.226;2022-08-01T10:22:13;4.40;;;2.05;;
62153;SDS011;48140;45.486;9.226;2022-08-01T10:24:54;5.32;;;2.30;;
62153;SDS011;48140;45.486;9.226;2022-08-01T10:27:37;5.00;;;2.30;;
62153;SDS011;48140;45.486;9.226;2022-08-01T10:30:31;4.45;;;1.92;;
62153;SDS011;48140;45.486;9.226;2022-08-01T10:33:03;6.47;;;2.60;;
62153;SDS011;48140;45.486;9.226;2022-08-01T10:35:32;4.20;;;2.00;;
62153;SDS011;48140;45.486;9.226;2022-08-01T10:38:05;5.25;;;2.38;;
62153;SDS011;48140;45.486;9.226;2022-08-01T10:40:49;5.05;;;2.50;;
62153;SDS011;48140;45.486;9.226;2022-08-01T10:43:18;4.53;;;2.40;;
62153;SDS011;48140;45.486;9.226;2022-08-01T10:45:44;6.88;;;2.60;;
62153;SDS011;48140;45.486;9.226;2022-08-01T11:03:43;9.25;;;2.30;;
62153;SDS011;48140;45.486;9.226;2022-08-01T11:09:15;5.05;;;1.98;;
62153;SDS011;48140;45.486;9.226;2022-08-01T11:12:15;3.63;;;1.80;;
62153;SDS011;48140;45.486;9.226;2022-08-01T11:17:45;3.88;;;1.80;;
62153;SDS011;48140;45.486;9.226;2022-08-01T11:20:16;8.63;;;2.30;;
62153;SDS011;48140;45.486;9.226;2022-08-01T11:28:18;8.27;;;2.15;;
62153;SDS011;48140;45.486;9.226;2022-08-01T11:31:36;4.95;;;2.10;;
62153;SDS011;48140;45.486;9.226;2022-08-01T11:38:38;3.22;;;1.90;;
62153;SDS011;48140;45.486;9.226;2022-08-01T11:41:12;3.72;;;2.00;;
62153;SDS011;48140;45.486;9.226;2022-08-01T11:46:49;4.43;;;1.63;;
62153;SDS011;48140;45.486;9.226;2022-08-01T11:54:38;6.40;;;1.90;;
62153;SDS011;48140;45.486;9.226;2022-08-01T11:57:28;3.05;;;1.67;;
62153;SDS011;48140;45.486;9.226;2022-08-01T12:00:13;3.92;;;1.80;;
62153;SDS011;48140;45.486;9.226;2022-08-01T12:02:43;3.28;;;2.00;;
62153;SDS011;48140;45.486;9.226;2022-08-01T12:05:26;9.13;;;1.90;;
62153;SDS011;48140;45.486;9.226;2022-08-01T12:08:26;3.60;;;1.73;;
62153;SDS011;48140;45.486;9.226;2022-08-01T12:11:09;2.72;;;1.60;;
62153;SDS011;48140;45.486;9.226;2022-08-01T12:13:45;4.13;;;1.73;;
62153;SDS011;48140;45.486;9.226;2022-08-01T12:16:11;3.38;;;1.73;;
62153;SDS011;48140;45.486;9.226;2022-08-01T12:18:49;3.08;;;2.25;;
62153;SDS011;48140;45.486;9.226;2022-08-01T12:21:21;2.85;;;1.70;;
62153;SDS011;48140;45.486;9.226;2022-08-01T12:23:59;4.18;;;1.67;;
62153;SDS011;48140;45.486;9.226;2022-08-01T12:26:41;2.33;;;1.65;;
62153;SDS011;48140;45.486;9.226;2022-08-01T12:29:07;2.30;;;1.77;;
62153;SDS011;48140;45.486;9.226;2022-08-01T12:31:33;3.60;;;1.80;;
62153;SDS011;48140;45.486;9.226;2022-08-01T12:34:25;3.35;;;1.95;;
62153;SDS011;48140;45.486;9.226;2022-08-01T12:36:55;6.32;;;2.13;;
62153;SDS011;48140;45.486;9.226;2022-08-01T12:39:28;5.65;;;2.10;;
62153;SDS011;48140;45.486;9.226;2022-08-01T12:41:58;5.38;;;1.90;;
62153;SDS011;48140;45.486;9.226;2022-08-01T12:44:25;3.08;;;1.80;;
62153;SDS011;48140;45.486;9.226;2022-08-01T12:46:52;4.25;;;2.20;;
62153;SDS011;48140;45.486;9.226;2022-08-01T12:49:22;5.43;;;2.00;;
62153;SDS011;48140;45.486;9.226;2022-08-01T12:51:49;3.00;;;1.83;;
62153;SDS011;48140;45.486;9.226;2022-08-01T12:54:15;8.45;;;2.17;;
62153;SDS011;48140;45.486;9.226;2022-08-01T12:56:53;4.90;;;1.75;;
62153;SDS011;48140;45.486;9.226;2022-08-01T12:59:31;2.80;;;1.83;;
62153;SDS011;48140;45.486;9.226;2022-08-01T13:02:33;3.67;;;2.00;;
62153;SDS011;48140;45.486;9.226;2022-08-01T13:05:07;3.05;;;1.70;;
62153;SDS011;48140;45.486;9.226;2022-08-01T13:07:35;3.28;;;1.80;;
62153;SDS011;48140;45.486;9.226;2022-08-01T13:10:12;3.15;;;1.58;;
62153;SDS011;48140;45.486;9.226;2022-08-01T13:12:39;2.17;;;1.60;;
62153;SDS011;48140;45.486;9.226;2022-08-01T13:15:17;2.75;;;1.58;;
62153;SDS011;48140;45.486;9.226;2022-08-01T13:17:49;2.22;;;1.40;;
62153;SDS011;48140;45.486;9.226;2022-08-01T13:33:20;2.70;;;1.40;;
62153;SDS011;48140;45.486;9.226;2022-08-01T13:35:49;3.00;;;1.30;;
62153;SDS011;48140;45.486;9.226;2022-08-01T13:38:16;2.13;;;1.60;;
62153;SDS011;48140;45.486;9.226;2022-08-01T13:40:45;2.83;;;1.67;;
62153;SDS011;48140;45.486;9.226;2022-08-01T13:43:25;2.47;;;1.60;;
62153;SDS011;48140;45.486;9.226;2022-08-01T13:45:51;5.32;;;1.58;;
62153;SDS011;48140;45.486;9.226;2022-08-01T13:48:26;3.00;;;1.45;;
62153;SDS011;48140;45.486;9.226;2022-08-01T13:50:51;2.58;;;1.50;;
62153;SDS011;48140;45.486;9.226;2022-08-01T13:53:18;2.65;;;1.70;;
62153;SDS011;48140;45.486;9.226;2022-08-01T13:55:50;2.65;;;1.60;;
62153;SDS011;48140;45.486;9.226;2022-08-01T13:58:27;2.58;;;1.50;;
62153;SDS011;48140;45.486;9.226;2022-08-01T14:01:05;1.80;;;1.40;;
62153;SDS011;48140;45.486;9.226;2022-08-01T14:03:42;3.85;;;1.73;;
62153;SDS011;48140;45.486;9.226;2022-08-01T14:06:08;1.35;;;1.25;;
62153;SDS011;48140;45.486;9.226;2022-08-01T14:08:34;1.30;;;1.20;;
62153;SDS011;48140;45.486;9.226;2022-08-01T14:10:59;1.63;;;1.10;;
62153;SDS011;48140;45.486;9.226;2022-08-01T14:13:25;1.48;;;1.15;;
62153;SDS011;48140;45.486;9.226;2022-08-01T14:16:00;2.10;;;1.27;;
62153;SDS011;48140;45.486;9.226;2022-08-01T14:18:30;1.67;;;1.30;;
62153;SDS011;48140;45.486;9.226;2022-08-01T14:23:44;3.50;;;1.63;;
62153;SDS011;48140;45.486;9.226;2022-08-01T14:26:10;1.60;;;1.30;;
62153;SDS011;48140;45.486;9.226;2022-08-01T14:28:37;1.65;;;1.38;;
62153;SDS011;48140;45.486;9.226;2022-08-01T14:31:03;2.10;;;1.52;;
62153;SDS011;48140;45.486;9.226;2022-08-01T14:33:46;2.83;;;1.60;;
62153;SDS011;48140;45.486;9.226;2022-08-01T14:36:23;3.78;;;1.33;;
62153;SDS011;48140;45.486;9.226;2022-08-01T14:38:53;1.58;;;1.20;;
62153;SDS011;48140;45.486;9.226;2022-08-01T14:41:19;2.25;;;1.40;;
62153;SDS011;48140;45.486;9.226;2022-08-01T14:43:45;3.30;;;1.30;;
62153;SDS011;48140;45.486;9.226;2022-08-01T14:46:11;1.48;;;1.15;;
62153;SDS011;48140;45.486;9.226;2022-08-01T14:48:39;2.38;;;1.38;;
62153;SDS011;48140;45.486;9.226;2022-08-01T14:51:06;2.72;;;1.30;;
62153;SDS011;48140;45.486;9.226;2022-08-01T14:53:32;1.17;;;1.08;;
62153;SDS011;48140;45.486;9.226;2022-08-01T14:56:03;1.60;;;1.10;;
62153;SDS011;48140;45.486;9.226;2022-08-01T14:58:30;1.33;;;1.17;;
62153;SDS011;48140;45.486;9.226;2022-08-01T15:00:56;4.90;;;1.40;;
62153;SDS011;48140;45.486;9.226;2022-08-01T15:03:22;1.58;;;1.27;;
62153;SDS011;48140;45.486;9.226;2022-08-01T15:05:48;0.80;;;0.80;;
62153;SDS011;48140;45.486;9.226;2022-08-01T15:08:14;1.52;;;1.23;;
62153;SDS011;48140;45.486;9.226;2022-08-01T15:10:40;1.85;;;1.48;;
62153;SDS011;48140;45.486;9.226;2022-08-01T15:13:05;1.45;;;1.27;;
62153;SDS011;48140;45.486;9.226;2022-08-01T15:15:32;1.80;;;1.17;;
62153;SDS011;48140;45.486;9.226;2022-08-01T15:17:59;2.08;;;1.23;;
62153;SDS011;48140;45.486;9.226;2022-08-01T15:20:24;2.50;;;1.30;;
62153;SDS011;48140;45.486;9.226;2022-08-01T15:22:52;2.13;;;1.50;;
62153;SDS011;48140;45.486;9.226;2022-08-01T15:25:18;3.00;;;1.13;;
62153;SDS011;48140;45.486;9.226;2022-08-01T15:27:45;1.60;;;1.20;;
62153;SDS011;48140;45.486;9.226;2022-08-01T15:30:12;1.25;;;1.10;;
62153;SDS011;48140;45.486;9.226;2022-08-01T15:37:49;7.28;;;1.40;;
62153;SDS011;48140;45.486;9.226;2022-08-01T15:40:15;1.45;;;1.25;;
62153;SDS011;48140;45.486;9.226;2022-08-01T15:42:44;1.27;;;1.17;;
62153;SDS011;48140;45.486;9.226;2022-08-01T15:45:10;2.42;;;1.10;;
62153;SDS011;48140;45.486;9.226;2022-08-01T15:47:43;3.13;;;1.30;;
62153;SDS011;48140;45.486;9.226;2022-08-01T15:50:09;1.42;;;1.30;;
62153;SDS011;48140;45.486;9.226;2022-08-01T15:52:35;2.35;;;1.40;;
62153;SDS011;48140;45.486;9.226;2022-08-01T15:55:01;1.20;;;1.10;;
62153;SDS011;48140;45.486;9.226;2022-08-01T15:57:27;1.48;;;1.20;;
62153;SDS011;48140;45.486;9.226;2022-08-01T15:59:53;3.38;;;1.20;;
62153;SDS011;48140;45.486;9.226;2022-08-01T16:02:19;1.40;;;1.30;;
62153;SDS011;48140;45.486;9.226;2022-08-01T16:04:45;1.60;;;0.90;;
62153;SDS011;48140;45.486;9.226;2022-08-01T16:07:11;1.58;;;1.23;;
62153;SDS011;48140;45.486;9.226;2022-08-01T16:09:37;1.88;;;1.30;;
62153;SDS011;48140;45.486;9.226;2022-08-01T16:12:05;3.03;;;1.17;;
62153;SDS011;48140;45.486;9.226;2022-08-01T16:14:32;3.70;;;1.15;;
62153;SDS011;48140;45.486;9.226;2022-08-01T16:16:58;3.75;;;1.35;;
62153;SDS011;48140;45.486;9.226;2022-08-01T16:19:24;1.25;;;1.15;;
62153;SDS011;48140;45.486;9.226;2022-08-01T16:21:51;2.05;;;1.20;;
62153;SDS011;48140;45.486;9.226;2022-08-01T16:24:17;1.88;;;1.33;;
62153;SDS011;48140;45.486;9.226;2022-08-01T16:26:46;1.20;;;1.10;;
62153;SDS011;48140;45.486;9.226;2022-08-01T16:29:12;1.52;;;1.20;;
62153;SDS011;48140;45.486;9.226;2022-08-01T16:31:39;2.97;;;1.23;;
62153;SDS011;48140;45.486;9.226;2022-08-01T16:34:05;2.53;;;1.10;;
62153;SDS011;48140;45.486;9.226;2022-08-01T16:36:31;1.98;;;1.25;;
62153;SDS011;48140;45.486;9.226;2022-08-01T16:41:32;1.23;;;1.00;;
62153;SDS011;48140;45.486;9.226;2022-08-01T16:43:59;1.98;;;1.30;;
62153;SDS011;48140;45.486;9.226;2022-08-01T16:46:26;1.63;;;1.20;;
62153;SDS011;48140;45.486;9.226;2022-08-01T16:48:52;1.42;;;1.13;;
62153;SDS011;48140;45.486;9.226;2022-08-01T16:51:18;1.27;;;1.10;;
62153;SDS011;48140;45.486;9.226;2022-08-01T16:53:44;1.73;;;1.35;;
62153;SDS011;48140;45.486;9.226;2022-08-01T16:56:11;1.33;;;1.08;;
62153;SDS011;48140;45.486;9.226;2022-08-01T16:58:43;1.35;;;1.20;;
62153;SDS011;48140;45.486;9.226;2022-08-01T17:01:15;1.88;;;0.98;;
62153;SDS011;48140;45.486;9.226;2022-08-01T17:03:47;2.50;;;1.15;;
62153;SDS011;48140;45.486;9.226;2022-08-01T17:06:16;1.90;;;1.15;;
62153;SDS011;48140;45.486;9.226;2022-08-01T17:08:45;2.55;;;1.15;;
62153;SDS011;48140;45.486;9.226;2022-08-01T17:11:12;1.30;;;1.10;;
62153;SDS011;48140;45.486;9.226;2022-08-01T17:13:41;1.98;;;1.48;;
62153;SDS011;48140;45.486;9.226;2022-08-01T17:16:10;1.70;;;1.15;;
62153;SDS011;48140;45.486;9.226;2022-08-01T17:18:58;1.38;;;1.10;;
62153;SDS011;48140;45.486;9.226;2022-08-01T17:21:40;1.35;;;1.02;;
62153;SDS011;48140;45.486;9.226;2022-08-01T17:24:14;1.48;;;1.20;;
62153;SDS011;48140;45.486;9.226;2022-08-01T17:27:03;2.03;;;1.45;;
62153;SDS011;48140;45.486;9.226;2022-08-01T17:29:57;1.58;;;1.10;;
62153;SDS011;48140;45.486;9.226;2022-08-01T17:32:44;2.28;;;1.30;;
62153;SDS011;48140;45.486;9.226;2022-08-01T17:35:39;1.52;;;1.05;;
62153;SDS011;48140;45.486;9.226;2022-08-01T17:38:14;1.00;;;0.90;;
62153;SDS011;48140;45.486;9.226;2022-08-01T17:41:11;3.58;;;1.27;;
62153;SDS011;48140;45.486;9.226;2022-08-01T17:43:43;2.70;;;1.23;;
62153;SDS011;48140;45.486;9.226;2022-08-01T17:46:37;2.97;;;1.20;;
62153;SDS011;48140;45.486;9.226;2022-08-01T17:49:13;1.20;;;1.08;;
62153;SDS011;48140;45.486;9.226;2022-08-01T17:51:46;1.55;;;1.13;;
62153;SDS011;48140;45.486;9.226;2022-08-01T17:54:47;2.22;;;1.35;;
62153;SDS011;48140;45.486;9.226;2022-08-01T17:57:25;1.73;;;1.35;;
62153;SDS011;48140;45.486;9.226;2022-08-01T18:00:11;2.15;;;1.60;;
62153;SDS011;48140;45.486;9.226;2022-08-01T18:03:15;2.03;;;1.15;;
62153;SDS011;48140;45.486;9.226;2022-08-01T18:05:50;1.45;;;1.15;;
62153;SDS011;48140;45.486;9.226;2022-08-01T18:08:23;2.55;;;1.48;;
62153;SDS011;48140;45.486;9.226;2022-08-01T18:11:16;2.42;;;1.40;;
62153;SDS011;48140;45.486;9.226;2022-08-01T18:16:31;2.40;;;1.70;;
62153;SDS011;48140;45.486;9.226;2022-08-01T18:19:00;1.55;;;1.17;;
62153;SDS011;48140;45.486;9.226;2022-08-01T18:21:27;2.97;;;1.58;;
62153;SDS011;48140;45.486;9.226;2022-08-01T18:23:58;5.35;;;1.55;;
62153;SDS011;48140;45.486;9.226;2022-08-01T18:26:26;1.70;;;1.23;;
62153;SDS011;48140;45.486;9.226;2022-08-01T18:28:55;2.58;;;1.50;;
62153;SDS011;48140;45.486;9.226;2022-08-01T18:31:22;3.13;;;1.60;;
62153;SDS011;48140;45.486;9.226;2022-08-01T18:33:48;1.33;;;1.23;;
62153;SDS011;48140;45.486;9.226;2022-08-01T18:36:15;1.73;;;1.40;;
62153;SDS011;48140;45.486;9.226;2022-08-01T18:38:46;2.58;;;1.50;;
62153;SDS011;48140;45.486;9.226;2022-08-01T18:41:12;2.22;;;1.50;;
62153;SDS011;48140;45.486;9.226;2022-08-01T18:43:38;2.92;;;1.60;;
62153;SDS011;48140;45.486;9.226;2022-08-01T18:46:04;3.08;;;1.50;;
62153;SDS011;48140;45.486;9.226;2022-08-01T18:48:31;2.38;;;1.60;;
62153;SDS011;48140;45.486;9.226;2022-08-01T18:51:00;2.80;;;1.63;;
62153;SDS011;48140;45.486;9.226;2022-08-01T18:53:27;2.53;;;1.60;;
62153;SDS011;48140;45.486;9.226;2022-08-01T18:55:52;4.55;;;2.00;;
62153;SDS011;48140;45.486;9.226;2022-08-01T19:00:54;6.45;;;1.75;;